sensor_id;sensor_type;location;lat;lon;timestamp;temperature;humidity
25949;DHT22;13961;51.178;4.448;2023-04-19T00:01:00;10.10;99.90
25949;DHT22;13961;51.178;4.448;2023-04-19T00:03:27;10.20;99.90
25949;DHT22;13961;51.178;4.448;2023-04-19T00:05:52;10.50;99.90
25949;DHT22;13961;51.178;4.448;2023-04-19T00:08:18;10.40;99.90
25949;DHT22;13961;51.178;4.448;2023-04-19T00:10:44;10.00;99.90
25949;DHT22;13961;51.178;4.448;2023-04-19T00:13:10;9.90;99.90
25949;DHT22;13961;51.178;4.448;2023-04-19T00:15:37;10.10;99.90
25949;DHT22;13961;51.178;4.448;2023-04-19T00:18:02;9.90;99.90
25949;DHT22;13961;51.178;4.448;2023-04-19T00:20:28;9.90;99.90
25949;DHT22;13961;51.178;4.448;2023-04-19T00:22:54;10.10;99.90
25949;DHT22;13961;51.178;4.448;2023-04-19T00:25:20;10.10;99.90
25949;DHT22;13961;51.178;4.448;2023-04-19T00:27:45;10.30;99.90
25949;DHT22;13961;51.178;4.448;2023-04-19T00:30:11;10.20;99.90
25949;DHT22;13961;51.178;4.448;2023-04-19T00:32:37;10.10;99.90
25949;DHT22;13961;51.178;4.448;2023-04-19T00:35:02;10.30;99.90
25949;DHT22;13961;51.178;4.448;2023-04-19T00:37:28;10.10;99.90
25949;DHT22;13961;51.178;4.448;2023-04-19T00:39:54;9.90;99.90
25949;DHT22;13961;51.178;4.448;2023-04-19T00:42:20;9.90;99.90
25949;DHT22;13961;51.178;4.448;2023-04-19T00:44:46;9.90;99.90
25949;DHT22;13961;51.178;4.448;2023-04-19T00:47:13;9.80;99.90
25949;DHT22;13961;51.178;4.448;2023-04-19T00:49:39;9.80;99.90
25949;DHT22;13961;51.178;4.448;2023-04-19T00:52:07;9.80;99.90
25949;DHT22;13961;51.178;4.448;2023-04-19T00:54:33;10.10;99.90
25949;DHT22;13961;51.178;4.448;2023-04-19T00:56:58;9.70;99.90
25949;DHT22;13961;51.178;4.448;2023-04-19T00:59:25;9.80;99.90
25949;DHT22;13961;51.178;4.448;2023-04-19T01:01:52;10.00;99.90
25949;DHT22;13961;51.178;4.448;2023-04-19T01:04:18;10.00;99.90
25949;DHT22;13961;51.178;4.448;2023-04-19T01:06:44;9.90;99.90
25949;DHT22;13961;51.178;4.448;2023-04-19T01:09:09;10.10;99.90
25949;DHT22;13961;51.178;4.448;2023-04-19T01:11:35;9.80;99.90
25949;DHT22;13961;51.178;4.448;2023-04-19T01:14:01;9.90;99.90
25949;DHT22;13961;51.178;4.448;2023-04-19T01:16:26;9.70;99.90
25949;DHT22;13961;51.178;4.448;2023-04-19T01:18:52;9.60;99.90
25949;DHT22;13961;51.178;4.448;2023-04-19T01:21:18;9.80;99.90
25949;DHT22;13961;51.178;4.448;2023-04-19T01:23:44;9.90;99.90
25949;DHT22;13961;51.178;4.448;2023-04-19T01:26:10;9.70;99.90
25949;DHT22;13961;51.178;4.448;2023-04-19T01:28:35;9.90;99.90
25949;DHT22;13961;51.178;4.448;2023-04-19T01:31:03;10.00;99.90
25949;DHT22;13961;51.178;4.448;2023-04-19T01:33:29;9.80;99.90
25949;DHT22;13961;51.178;4.448;2023-04-19T01:35:55;9.90;99.90
25949;DHT22;13961;51.178;4.448;2023-04-19T01:38:20;9.90;99.90
25949;DHT22;13961;51.178;4.448;2023-04-19T01:40:46;10.00;99.90
25949;DHT22;13961;51.178;4.448;2023-04-19T01:43:13;10.20;99.90
25949;DHT22;13961;51.178;4.448;2023-04-19T01:45:38;10.30;99.90
25949;DHT22;13961;51.178;4.448;2023-04-19T01:48:04;10.10;99.90
25949;DHT22;13961;51.178;4.448;2023-04-19T01:50:30;10.20;99.90
25949;DHT22;13961;51.178;4.448;2023-04-19T01:52:57;10.50;99.90
25949;DHT22;13961;51.178;4.448;2023-04-19T01:55:22;10.40;99.90
25949;DHT22;13961;51.178;4.448;2023-04-19T01:57:48;10.30;99.90
25949;DHT22;13961;51.178;4.448;2023-04-19T02:00:14;10.30;99.90
25949;DHT22;13961;51.178;4.448;2023-04-19T02:02:42;10.20;99.90
25949;DHT22;13961;51.178;4.448;2023-04-19T02:05:08;10.20;99.90
25949;DHT22;13961;51.178;4.448;2023-04-19T02:07:34;10.40;99.90
25949;DHT22;13961;51.178;4.448;2023-04-19T02:10:00;10.60;99.90
25949;DHT22;13961;51.178;4.448;2023-04-19T02:12:26;10.50;99.90
25949;DHT22;13961;51.178;4.448;2023-04-19T02:14:56;10.60;99.90
25949;DHT22;13961;51.178;4.448;2023-04-19T02:17:22;10.40;99.90
25949;DHT22;13961;51.178;4.448;2023-04-19T02:19:48;10.50;99.90
25949;DHT22;13961;51.178;4.448;2023-04-19T02:22:14;10.60;99.90
25949;DHT22;13961;51.178;4.448;2023-04-19T02:24:40;10.60;99.90
25949;DHT22;13961;51.178;4.448;2023-04-19T02:27:05;10.50;99.90
25949;DHT22;13961;51.178;4.448;2023-04-19T02:29:32;10.60;99.90
25949;DHT22;13961;51.178;4.448;2023-04-19T02:31:58;10.70;99.90
25949;DHT22;13961;51.178;4.448;2023-04-19T02:34:23;10.90;99.90
25949;DHT22;13961;51.178;4.448;2023-04-19T02:36:49;11.00;99.90
25949;DHT22;13961;51.178;4.448;2023-04-19T02:39:15;10.90;99.90
25949;DHT22;13961;51.178;4.448;2023-04-19T02:41:41;10.90;99.90
25949;DHT22;13961;51.178;4.448;2023-04-19T02:44:07;11.20;99.90
25949;DHT22;13961;51.178;4.448;2023-04-19T02:46:33;10.90;99.90
25949;DHT22;13961;51.178;4.448;2023-04-19T02:49:01;11.10;99.90
25949;DHT22;13961;51.178;4.448;2023-04-19T02:51:27;10.90;99.90
25949;DHT22;13961;51.178;4.448;2023-04-19T02:53:53;10.70;99.90
25949;DHT22;13961;51.178;4.448;2023-04-19T02:56:19;10.90;99.90
25949;DHT22;13961;51.178;4.448;2023-04-19T02:58:46;10.90;99.90
25949;DHT22;13961;51.178;4.448;2023-04-19T03:01:11;10.80;99.90
25949;DHT22;13961;51.178;4.448;2023-04-19T03:03:37;10.90;99.90
25949;DHT22;13961;51.178;4.448;2023-04-19T03:06:03;11.10;99.90
25949;DHT22;13961;51.178;4.448;2023-04-19T03:08:29;10.90;99.90
25949;DHT22;13961;51.178;4.448;2023-04-19T03:10:54;10.90;99.90
25949;DHT22;13961;51.178;4.448;2023-04-19T03:13:20;11.10;99.90
25949;DHT22;13961;51.178;4.448;2023-04-19T03:15:46;10.90;99.90
25949;DHT22;13961;51.178;4.448;2023-04-19T03:18:12;10.80;99.90
25949;DHT22;13961;51.178;4.448;2023-04-19T03:20:38;10.90;99.90
25949;DHT22;13961;51.178;4.448;2023-04-19T03:23:04;11.00;99.90
25949;DHT22;13961;51.178;4.448;2023-04-19T03:25:29;10.90;99.90
25949;DHT22;13961;51.178;4.448;2023-04-19T03:27:57;10.80;99.90
25949;DHT22;13961;51.178;4.448;2023-04-19T03:30:23;11.00;99.90
25949;DHT22;13961;51.178;4.448;2023-04-19T03:32:48;10.90;99.90
25949;DHT22;13961;51.178;4.448;2023-04-19T03:35:16;11.00;99.90
25949;DHT22;13961;51.178;4.448;2023-04-19T03:37:42;10.80;99.90
25949;DHT22;13961;51.178;4.448;2023-04-19T03:40:08;10.70;99.90
25949;DHT22;13961;51.178;4.448;2023-04-19T03:42:33;10.60;99.90
25949;DHT22;13961;51.178;4.448;2023-04-19T03:44:59;10.90;99.90
25949;DHT22;13961;51.178;4.448;2023-04-19T03:47:25;10.70;99.90
25949;DHT22;13961;51.178;4.448;2023-04-19T03:49:50;10.60;99.90
25949;DHT22;13961;51.178;4.448;2023-04-19T03:52:16;10.80;99.90
25949;DHT22;13961;51.178;4.448;2023-04-19T03:54:42;10.90;99.90
25949;DHT22;13961;51.178;4.448;2023-04-19T03:57:07;10.80;99.90
25949;DHT22;13961;51.178;4.448;2023-04-19T03:59:34;11.00;99.90
25949;DHT22;13961;51.178;4.448;2023-04-19T04:01:59;11.00;99.90
25949;DHT22;13961;51.178;4.448;2023-04-19T04:04:25;11.20;99.90
25949;DHT22;13961;51.178;4.448;2023-04-19T04:06:51;11.10;99.90
25949;DHT22;13961;51.178;4.448;2023-04-19T04:09:16;11.10;99.90
25949;DHT22;13961;51.178;4.448;2023-04-19T04:11:42;11.10;99.90
25949;DHT22;13961;51.178;4.448;2023-04-19T04:14:07;11.10;99.90
25949;DHT22;13961;51.178;4.448;2023-04-19T04:16:33;11.00;99.90
25949;DHT22;13961;51.178;4.448;2023-04-19T04:18:59;11.00;99.90
25949;DHT22;13961;51.178;4.448;2023-04-19T04:21:24;11.20;99.90
25949;DHT22;13961;51.178;4.448;2023-04-19T04:23:51;11.10;99.90
25949;DHT22;13961;51.178;4.448;2023-04-19T04:26:17;11.10;99.90
25949;DHT22;13961;51.178;4.448;2023-04-19T04:28:44;11.00;99.90
25949;DHT22;13961;51.178;4.448;2023-04-19T04:31:10;10.60;99.90
25949;DHT22;13961;51.178;4.448;2023-04-19T04:33:37;10.60;99.90
25949;DHT22;13961;51.178;4.448;2023-04-19T04:36:04;10.50;99.90
25949;DHT22;13961;51.178;4.448;2023-04-19T04:38:29;10.50;99.90
25949;DHT22;13961;51.178;4.448;2023-04-19T04:40:55;10.60;99.90
25949;DHT22;13961;51.178;4.448;2023-04-19T04:43:25;10.70;99.90
25949;DHT22;13961;51.178;4.448;2023-04-19T04:45:53;10.60;99.90
25949;DHT22;13961;51.178;4.448;2023-04-19T04:48:21;10.60;99.90
25949;DHT22;13961;51.178;4.448;2023-04-19T04:50:46;10.50;99.90
25949;DHT22;13961;51.178;4.448;2023-04-19T04:53:13;10.40;99.90
25949;DHT22;13961;51.178;4.448;2023-04-19T04:55:39;10.60;99.90
25949;DHT22;13961;51.178;4.448;2023-04-19T04:58:05;10.40;99.90
25949;DHT22;13961;51.178;4.448;2023-04-19T05:00:31;10.20;99.90
25949;DHT22;13961;51.178;4.448;2023-04-19T05:02:57;10.40;99.90
25949;DHT22;13961;51.178;4.448;2023-04-19T05:05:23;10.40;99.90
25949;DHT22;13961;51.178;4.448;2023-04-19T05:07:49;10.40;99.90
25949;DHT22;13961;51.178;4.448;2023-04-19T05:10:15;10.60;99.90
25949;DHT22;13961;51.178;4.448;2023-04-19T05:12:40;10.70;99.90
25949;DHT22;13961;51.178;4.448;2023-04-19T05:15:07;10.50;99.90
25949;DHT22;13961;51.178;4.448;2023-04-19T05:17:33;10.50;99.90
25949;DHT22;13961;51.178;4.448;2023-04-19T05:19:59;10.60;99.90
25949;DHT22;13961;51.178;4.448;2023-04-19T05:22:25;10.50;99.90
25949;DHT22;13961;51.178;4.448;2023-04-19T05:24:50;10.60;99.90
25949;DHT22;13961;51.178;4.448;2023-04-19T05:27:16;10.40;99.90
25949;DHT22;13961;51.178;4.448;2023-04-19T05:29:42;10.50;99.90
25949;DHT22;13961;51.178;4.448;2023-04-19T05:32:07;10.60;99.90
25949;DHT22;13961;51.178;4.448;2023-04-19T05:34:34;10.60;99.90
25949;DHT22;13961;51.178;4.448;2023-04-19T05:37:01;10.70;99.90
25949;DHT22;13961;51.178;4.448;2023-04-19T05:39:27;10.80;99.90
25949;DHT22;13961;51.178;4.448;2023-04-19T05:41:53;10.80;99.90
25949;DHT22;13961;51.178;4.448;2023-04-19T05:44:19;10.70;99.90
25949;DHT22;13961;51.178;4.448;2023-04-19T05:46:45;10.80;99.90
25949;DHT22;13961;51.178;4.448;2023-04-19T05:49:10;10.70;99.90
25949;DHT22;13961;51.178;4.448;2023-04-19T05:51:36;10.50;99.90
25949;DHT22;13961;51.178;4.448;2023-04-19T05:54:02;10.60;99.90
25949;DHT22;13961;51.178;4.448;2023-04-19T05:56:28;10.80;99.90
25949;DHT22;13961;51.178;4.448;2023-04-19T05:58:54;11.00;99.90
25949;DHT22;13961;51.178;4.448;2023-04-19T06:01:21;10.90;99.90
25949;DHT22;13961;51.178;4.448;2023-04-19T06:03:47;11.20;99.90
25949;DHT22;13961;51.178;4.448;2023-04-19T06:06:17;11.00;99.90
25949;DHT22;13961;51.178;4.448;2023-04-19T06:08:43;11.00;99.90
25949;DHT22;13961;51.178;4.448;2023-04-19T06:11:09;11.30;99.90
25949;DHT22;13961;51.178;4.448;2023-04-19T06:13:34;11.20;99.90
25949;DHT22;13961;51.178;4.448;2023-04-19T06:16:00;11.30;99.90
25949;DHT22;13961;51.178;4.448;2023-04-19T06:18:26;11.50;99.90
25949;DHT22;13961;51.178;4.448;2023-04-19T06:20:52;11.50;99.90
25949;DHT22;13961;51.178;4.448;2023-04-19T06:23:18;11.70;99.90
25949;DHT22;13961;51.178;4.448;2023-04-19T06:25:44;11.80;99.90
25949;DHT22;13961;51.178;4.448;2023-04-19T06:28:09;12.00;99.90
25949;DHT22;13961;51.178;4.448;2023-04-19T06:30:35;12.00;99.90
25949;DHT22;13961;51.178;4.448;2023-04-19T06:33:01;12.20;99.90
25949;DHT22;13961;51.178;4.448;2023-04-19T06:35:26;12.30;99.90
25949;DHT22;13961;51.178;4.448;2023-04-19T06:37:52;12.50;99.90
25949;DHT22;13961;51.178;4.448;2023-04-19T06:40:18;12.60;99.90
25949;DHT22;13961;51.178;4.448;2023-04-19T06:42:44;12.50;99.90
25949;DHT22;13961;51.178;4.448;2023-04-19T06:45:10;12.60;99.90
25949;DHT22;13961;51.178;4.448;2023-04-19T06:47:36;12.80;99.90
25949;DHT22;13961;51.178;4.448;2023-04-19T06:50:01;13.00;99.90
25949;DHT22;13961;51.178;4.448;2023-04-19T06:52:28;13.70;99.90
25949;DHT22;13961;51.178;4.448;2023-04-19T06:54:53;13.70;99.90
25949;DHT22;13961;51.178;4.448;2023-04-19T06:57:19;14.00;99.90
25949;DHT22;13961;51.178;4.448;2023-04-19T06:59:48;14.70;99.90
25949;DHT22;13961;51.178;4.448;2023-04-19T07:02:14;15.80;99.90
25949;DHT22;13961;51.178;4.448;2023-04-19T07:04:39;16.50;99.90
25949;DHT22;13961;51.178;4.448;2023-04-19T07:07:05;16.90;99.90
25949;DHT22;13961;51.178;4.448;2023-04-19T07:09:31;17.30;99.90
25949;DHT22;13961;51.178;4.448;2023-04-19T07:11:57;17.20;99.90
25949;DHT22;13961;51.178;4.448;2023-04-19T07:14:22;17.30;99.90
25949;DHT22;13961;51.178;4.448;2023-04-19T07:16:48;17.00;99.90
25949;DHT22;13961;51.178;4.448;2023-04-19T07:19:14;16.90;99.90
25949;DHT22;13961;51.178;4.448;2023-04-19T07:21:40;16.90;99.90
25949;DHT22;13961;51.178;4.448;2023-04-19T07:24:06;16.50;99.90
25949;DHT22;13961;51.178;4.448;2023-04-19T07:26:32;17.00;99.90
25949;DHT22;13961;51.178;4.448;2023-04-19T07:28:58;17.10;99.90
25949;DHT22;13961;51.178;4.448;2023-04-19T07:31:24;17.40;99.90
25949;DHT22;13961;51.178;4.448;2023-04-19T07:33:51;17.40;99.90
25949;DHT22;13961;51.178;4.448;2023-04-19T07:36:17;17.00;99.90
25949;DHT22;13961;51.178;4.448;2023-04-19T07:38:42;17.90;99.90
25949;DHT22;13961;51.178;4.448;2023-04-19T07:41:08;17.70;99.90
25949;DHT22;13961;51.178;4.448;2023-04-19T07:43:35;18.70;99.90
25949;DHT22;13961;51.178;4.448;2023-04-19T07:46:01;18.70;99.90
25949;DHT22;13961;51.178;4.448;2023-04-19T07:48:27;18.20;99.90
25949;DHT22;13961;51.178;4.448;2023-04-19T07:50:53;18.50;99.90
25949;DHT22;13961;51.178;4.448;2023-04-19T07:53:18;18.60;99.90
25949;DHT22;13961;51.178;4.448;2023-04-19T07:55:44;18.10;99.90
25949;DHT22;13961;51.178;4.448;2023-04-19T07:58:10;18.40;99.90
25949;DHT22;13961;51.178;4.448;2023-04-19T08:00:36;19.10;99.90
25949;DHT22;13961;51.178;4.448;2023-04-19T08:03:02;19.10;99.90
25949;DHT22;13961;51.178;4.448;2023-04-19T08:05:31;19.50;99.90
25949;DHT22;13961;51.178;4.448;2023-04-19T08:07:57;19.50;99.90
25949;DHT22;13961;51.178;4.448;2023-04-19T08:10:22;18.80;99.90
25949;DHT22;13961;51.178;4.448;2023-04-19T08:12:49;19.20;99.90
25949;DHT22;13961;51.178;4.448;2023-04-19T08:15:15;18.20;99.90
25949;DHT22;13961;51.178;4.448;2023-04-19T08:17:42;18.30;99.90
25949;DHT22;13961;51.178;4.448;2023-04-19T08:20:09;18.10;99.90
25949;DHT22;13961;51.178;4.448;2023-04-19T08:22:36;17.70;99.90
25949;DHT22;13961;51.178;4.448;2023-04-19T08:25:04;17.70;99.90
25949;DHT22;13961;51.178;4.448;2023-04-19T08:27:31;18.20;99.90
25949;DHT22;13961;51.178;4.448;2023-04-19T08:29:56;17.90;99.90
25949;DHT22;13961;51.178;4.448;2023-04-19T08:32:22;18.10;99.90
25949;DHT22;13961;51.178;4.448;2023-04-19T08:34:48;18.20;99.90
25949;DHT22;13961;51.178;4.448;2023-04-19T08:37:16;19.00;99.90
25949;DHT22;13961;51.178;4.448;2023-04-19T08:39:42;19.40;99.90
25949;DHT22;13961;51.178;4.448;2023-04-19T08:42:08;19.10;99.90
25949;DHT22;13961;51.178;4.448;2023-04-19T08:44:36;18.60;99.90
25949;DHT22;13961;51.178;4.448;2023-04-19T08:47:06;18.70;99.90
25949;DHT22;13961;51.178;4.448;2023-04-19T08:49:35;19.00;99.90
25949;DHT22;13961;51.178;4.448;2023-04-19T08:52:03;18.80;99.90
25949;DHT22;13961;51.178;4.448;2023-04-19T08:54:31;18.90;99.90
25949;DHT22;13961;51.178;4.448;2023-04-19T08:57:00;19.10;99.90
25949;DHT22;13961;51.178;4.448;2023-04-19T08:59:27;19.00;99.90
25949;DHT22;13961;51.178;4.448;2023-04-19T09:01:55;18.80;99.90
25949;DHT22;13961;51.178;4.448;2023-04-19T09:04:24;18.20;99.90
25949;DHT22;13961;51.178;4.448;2023-04-19T09:06:50;18.70;99.90
25949;DHT22;13961;51.178;4.448;2023-04-19T09:09:26;18.60;99.90
25949;DHT22;13961;51.178;4.448;2023-04-19T09:11:52;17.80;99.90
25949;DHT22;13961;51.178;4.448;2023-04-19T09:14:19;17.60;99.90
25949;DHT22;13961;51.178;4.448;2023-04-19T09:16:45;17.20;99.90
25949;DHT22;13961;51.178;4.448;2023-04-19T09:19:12;16.80;99.90
25949;DHT22;13961;51.178;4.448;2023-04-19T09:21:38;16.50;99.90
25949;DHT22;13961;51.178;4.448;2023-04-19T09:24:05;16.10;99.90
25949;DHT22;13961;51.178;4.448;2023-04-19T09:26:31;16.00;99.90
25949;DHT22;13961;51.178;4.448;2023-04-19T09:28:59;15.80;99.90
25949;DHT22;13961;51.178;4.448;2023-04-19T09:31:28;16.10;99.90
25949;DHT22;13961;51.178;4.448;2023-04-19T09:33:54;16.00;99.90
25949;DHT22;13961;51.178;4.448;2023-04-19T09:36:30;16.10;99.90
25949;DHT22;13961;51.178;4.448;2023-04-19T09:39:03;16.00;99.90
25949;DHT22;13961;51.178;4.448;2023-04-19T09:41:30;16.20;99.90
25949;DHT22;13961;51.178;4.448;2023-04-19T09:44:12;15.80;99.90
25949;DHT22;13961;51.178;4.448;2023-04-19T09:46:42;15.90;99.90
25949;DHT22;13961;51.178;4.448;2023-04-19T09:54:15;16.20;99.90
25949;DHT22;13961;51.178;4.448;2023-04-19T09:56:42;16.30;99.90
25949;DHT22;13961;51.178;4.448;2023-04-19T09:59:08;16.30;99.90
25949;DHT22;13961;51.178;4.448;2023-04-19T10:04:06;16.50;99.90
25949;DHT22;13961;51.178;4.448;2023-04-19T10:06:34;16.40;99.90
25949;DHT22;13961;51.178;4.448;2023-04-19T10:09:01;16.60;99.90
25949;DHT22;13961;51.178;4.448;2023-04-19T10:11:34;16.60;99.90
25949;DHT22;13961;51.178;4.448;2023-04-19T10:14:04;16.20;99.90
25949;DHT22;13961;51.178;4.448;2023-04-19T10:16:31;16.30;99.90
25949;DHT22;13961;51.178;4.448;2023-04-19T10:19:02;16.50;99.90
25949;DHT22;13961;51.178;4.448;2023-04-19T10:21:29;16.60;99.90
25949;DHT22;13961;51.178;4.448;2023-04-19T10:23:56;16.70;99.90
25949;DHT22;13961;51.178;4.448;2023-04-19T10:26:22;16.50;99.90
25949;DHT22;13961;51.178;4.448;2023-04-19T10:28:49;16.10;99.90
25949;DHT22;13961;51.178;4.448;2023-04-19T10:31:16;16.00;99.90
25949;DHT22;13961;51.178;4.448;2023-04-19T10:33:47;16.20;99.90
25949;DHT22;13961;51.178;4.448;2023-04-19T10:36:16;16.50;99.90
25949;DHT22;13961;51.178;4.448;2023-04-19T10:38:52;16.90;99.90
25949;DHT22;13961;51.178;4.448;2023-04-19T10:41:21;17.20;99.90
25949;DHT22;13961;51.178;4.448;2023-04-19T10:44:07;17.20;99.90
25949;DHT22;13961;51.178;4.448;2023-04-19T10:49:04;17.00;99.90
25949;DHT22;13961;51.178;4.448;2023-04-19T10:51:35;17.10;99.90
25949;DHT22;13961;51.178;4.448;2023-04-19T10:54:07;17.00;99.90
25949;DHT22;13961;51.178;4.448;2023-04-19T11:01:39;16.80;99.90
25949;DHT22;13961;51.178;4.448;2023-04-19T11:04:23;16.70;99.90
25949;DHT22;13961;51.178;4.448;2023-04-19T11:07:08;16.90;99.90
25949;DHT22;13961;51.178;4.448;2023-04-19T11:12:05;16.90;99.90
25949;DHT22;13961;51.178;4.448;2023-04-19T11:14:44;17.10;99.90
25949;DHT22;13961;51.178;4.448;2023-04-19T11:17:17;17.20;99.90
25949;DHT22;13961;51.178;4.448;2023-04-19T11:20:02;17.20;99.90
25949;DHT22;13961;51.178;4.448;2023-04-19T11:22:35;17.30;99.90
25949;DHT22;13961;51.178;4.448;2023-04-19T11:25:14;17.40;99.90
25949;DHT22;13961;51.178;4.448;2023-04-19T11:27:44;17.30;99.90
25949;DHT22;13961;51.178;4.448;2023-04-19T11:30:16;17.40;99.90
25949;DHT22;13961;51.178;4.448;2023-04-19T11:32:56;17.30;99.90
25949;DHT22;13961;51.178;4.448;2023-04-19T11:35:26;17.10;99.90
25949;DHT22;13961;51.178;4.448;2023-04-19T11:37:53;17.00;99.90
25949;DHT22;13961;51.178;4.448;2023-04-19T11:40:22;17.30;99.90
25949;DHT22;13961;51.178;4.448;2023-04-19T11:43:01;17.40;99.90
25949;DHT22;13961;51.178;4.448;2023-04-19T11:45:30;17.60;99.80
25949;DHT22;13961;51.178;4.448;2023-04-19T11:47:56;17.70;99.70
25949;DHT22;13961;51.178;4.448;2023-04-19T11:53:17;17.60;98.60
25949;DHT22;13961;51.178;4.448;2023-04-19T11:58:28;17.30;97.70
25949;DHT22;13961;51.178;4.448;2023-04-19T12:00:56;17.30;96.80
25949;DHT22;13961;51.178;4.448;2023-04-19T12:03:25;17.10;96.60
25949;DHT22;13961;51.178;4.448;2023-04-19T12:06:01;17.20;96.20
25949;DHT22;13961;51.178;4.448;2023-04-19T12:08:41;17.10;95.40
25949;DHT22;13961;51.178;4.448;2023-04-19T12:11:07;16.90;95.30
25949;DHT22;13961;51.178;4.448;2023-04-19T12:13:33;16.70;95.50
25949;DHT22;13961;51.178;4.448;2023-04-19T12:15:59;16.70;96.50
25949;DHT22;13961;51.178;4.448;2023-04-19T12:18:25;16.90;96.50
25949;DHT22;13961;51.178;4.448;2023-04-19T12:20:52;17.00;96.10
25949;DHT22;13961;51.178;4.448;2023-04-19T12:23:19;17.20;95.60
25949;DHT22;13961;51.178;4.448;2023-04-19T12:25:46;17.20;96.00
25949;DHT22;13961;51.178;4.448;2023-04-19T12:28:13;17.20;94.80
25949;DHT22;13961;51.178;4.448;2023-04-19T12:30:40;17.30;94.20
25949;DHT22;13961;51.178;4.448;2023-04-19T12:33:06;17.10;93.60
25949;DHT22;13961;51.178;4.448;2023-04-19T12:35:32;17.00;92.70
25949;DHT22;13961;51.178;4.448;2023-04-19T12:37:59;17.10;93.00
25949;DHT22;13961;51.178;4.448;2023-04-19T12:40:26;17.30;91.90
25949;DHT22;13961;51.178;4.448;2023-04-19T12:42:52;17.30;90.60
25949;DHT22;13961;51.178;4.448;2023-04-19T12:45:18;17.10;91.00
25949;DHT22;13961;51.178;4.448;2023-04-19T12:47:46;17.50;91.60
25949;DHT22;13961;51.178;4.448;2023-04-19T12:50:13;17.30;89.30
25949;DHT22;13961;51.178;4.448;2023-04-19T12:52:40;17.20;90.30
25949;DHT22;13961;51.178;4.448;2023-04-19T12:55:06;17.30;90.10
25949;DHT22;13961;51.178;4.448;2023-04-19T12:57:32;17.30;87.60
25949;DHT22;13961;51.178;4.448;2023-04-19T12:59:58;17.20;90.90
25949;DHT22;13961;51.178;4.448;2023-04-19T13:02:23;17.20;90.40
25949;DHT22;13961;51.178;4.448;2023-04-19T13:04:49;17.30;89.30
25949;DHT22;13961;51.178;4.448;2023-04-19T13:07:15;17.40;87.50
25949;DHT22;13961;51.178;4.448;2023-04-19T13:09:44;17.10;86.20
25949;DHT22;13961;51.178;4.448;2023-04-19T13:12:09;17.20;87.00
25949;DHT22;13961;51.178;4.448;2023-04-19T13:14:36;17.40;88.20
25949;DHT22;13961;51.178;4.448;2023-04-19T13:17:05;17.20;84.80
25949;DHT22;13961;51.178;4.448;2023-04-19T13:19:30;17.10;86.90
25949;DHT22;13961;51.178;4.448;2023-04-19T13:21:56;17.30;85.10
25949;DHT22;13961;51.178;4.448;2023-04-19T13:24:21;17.30;86.20
25949;DHT22;13961;51.178;4.448;2023-04-19T13:26:47;17.50;88.40
25949;DHT22;13961;51.178;4.448;2023-04-19T13:29:19;17.50;87.40
25949;DHT22;13961;51.178;4.448;2023-04-19T13:31:44;17.60;88.10
25949;DHT22;13961;51.178;4.448;2023-04-19T13:34:11;17.60;84.60
25949;DHT22;13961;51.178;4.448;2023-04-19T13:36:36;17.40;86.10
25949;DHT22;13961;51.178;4.448;2023-04-19T13:39:03;17.10;81.50
25949;DHT22;13961;51.178;4.448;2023-04-19T13:41:29;17.10;82.90
25949;DHT22;13961;51.178;4.448;2023-04-19T13:43:54;17.10;82.40
25949;DHT22;13961;51.178;4.448;2023-04-19T13:46:20;17.00;84.90
25949;DHT22;13961;51.178;4.448;2023-04-19T13:48:46;17.10;81.90
25949;DHT22;13961;51.178;4.448;2023-04-19T13:51:12;17.20;81.90
25949;DHT22;13961;51.178;4.448;2023-04-19T13:53:38;17.20;81.50
25949;DHT22;13961;51.178;4.448;2023-04-19T13:56:05;17.40;81.00
25949;DHT22;13961;51.178;4.448;2023-04-19T13:58:34;17.50;82.40
25949;DHT22;13961;51.178;4.448;2023-04-19T14:01:00;17.50;81.40
25949;DHT22;13961;51.178;4.448;2023-04-19T14:03:26;17.40;81.40
25949;DHT22;13961;51.178;4.448;2023-04-19T14:05:52;17.60;81.60
25949;DHT22;13961;51.178;4.448;2023-04-19T14:08:18;17.70;82.40
25949;DHT22;13961;51.178;4.448;2023-04-19T14:10:43;17.90;80.90
25949;DHT22;13961;51.178;4.448;2023-04-19T14:13:09;17.80;78.80
25949;DHT22;13961;51.178;4.448;2023-04-19T14:15:34;17.60;78.90
25949;DHT22;13961;51.178;4.448;2023-04-19T14:18:01;17.70;82.10
25949;DHT22;13961;51.178;4.448;2023-04-19T14:20:27;17.50;82.40
25949;DHT22;13961;51.178;4.448;2023-04-19T14:22:52;17.60;83.80
25949;DHT22;13961;51.178;4.448;2023-04-19T14:25:20;17.70;82.50
25949;DHT22;13961;51.178;4.448;2023-04-19T14:27:47;17.80;80.80
25949;DHT22;13961;51.178;4.448;2023-04-19T14:30:12;17.70;79.50
25949;DHT22;13961;51.178;4.448;2023-04-19T14:32:38;17.40;76.70
25949;DHT22;13961;51.178;4.448;2023-04-19T14:35:04;17.40;76.00
25949;DHT22;13961;51.178;4.448;2023-04-19T14:37:30;17.30;76.50
25949;DHT22;13961;51.178;4.448;2023-04-19T14:39:56;17.10;72.30
25949;DHT22;13961;51.178;4.448;2023-04-19T14:42:21;17.40;75.60
25949;DHT22;13961;51.178;4.448;2023-04-19T14:44:49;17.50;74.60
25949;DHT22;13961;51.178;4.448;2023-04-19T14:47:15;17.60;75.90
25949;DHT22;13961;51.178;4.448;2023-04-19T14:49:41;17.70;77.00
25949;DHT22;13961;51.178;4.448;2023-04-19T14:52:06;17.60;74.40
25949;DHT22;13961;51.178;4.448;2023-04-19T14:54:32;17.30;73.20
25949;DHT22;13961;51.178;4.448;2023-04-19T14:56:58;17.20;72.40
25949;DHT22;13961;51.178;4.448;2023-04-19T14:59:23;17.10;72.10
25949;DHT22;13961;51.178;4.448;2023-04-19T15:01:49;17.00;73.60
25949;DHT22;13961;51.178;4.448;2023-04-19T15:04:15;17.20;71.80
25949;DHT22;13961;51.178;4.448;2023-04-19T15:06:40;17.20;73.90
25949;DHT22;13961;51.178;4.448;2023-04-19T15:09:06;17.30;71.80
25949;DHT22;13961;51.178;4.448;2023-04-19T15:11:32;17.20;71.20
25949;DHT22;13961;51.178;4.448;2023-04-19T15:13:58;17.20;69.50
25949;DHT22;13961;51.178;4.448;2023-04-19T15:16:23;17.20;71.20
25949;DHT22;13961;51.178;4.448;2023-04-19T15:18:49;17.20;67.20
25949;DHT22;13961;51.178;4.448;2023-04-19T15:21:18;17.10;67.60
25949;DHT22;13961;51.178;4.448;2023-04-19T15:23:44;17.00;69.30
25949;DHT22;13961;51.178;4.448;2023-04-19T15:26:10;17.00;70.20
25949;DHT22;13961;51.178;4.448;2023-04-19T15:28:36;17.10;71.00
25949;DHT22;13961;51.178;4.448;2023-04-19T15:31:04;17.10;72.20
25949;DHT22;13961;51.178;4.448;2023-04-19T15:33:30;17.20;67.90
25949;DHT22;13961;51.178;4.448;2023-04-19T15:35:57;17.10;68.80
25949;DHT22;13961;51.178;4.448;2023-04-19T15:38:26;17.10;68.90
25949;DHT22;13961;51.178;4.448;2023-04-19T15:40:54;17.00;71.20
25949;DHT22;13961;51.178;4.448;2023-04-19T15:43:20;16.80;70.00
25949;DHT22;13961;51.178;4.448;2023-04-19T15:45:45;16.90;70.60
25949;DHT22;13961;51.178;4.448;2023-04-19T15:48:11;16.80;70.90
25949;DHT22;13961;51.178;4.448;2023-04-19T15:50:37;16.70;70.30
25949;DHT22;13961;51.178;4.448;2023-04-19T15:53:04;16.60;71.30